Aérodrome :







RETROUVEZ-NOUS SUR...

 
LOGIN :

S'inscrire | Disclaimer

   EN    FR    IT 

 









Légende :    VFR   VFR Marginal   IFR   IFR Intensif   IFR Très Intensif
Visi : 
Plafond : 
>= 8 km
>= 3000ft
5 à 8 km
1000 à 3000 ft
1500m à 5 km
500 à 1000 ft
800 à 1500m
200 à 500 ft
< 800m
< 200 ft
Symboles :   Orages  Brouillard  Fortes neiges  Fortes précipitations  Vent > 20 kt






- Altitude de l'aérodrome : 72 ft
- Code IATA : YDF


CYDF - Deer Lake

DERNIER METAR :
  • 120500Z 19002KT 15SM FEW045 M07/M09 A3029 RMK SC1 SC TR SLP260

METARs EXPIRÉS :
  • 120400Z 29003KT 15SM FEW140 M05/M08 A3027 RMK AC1 SLP255
  • 120300Z VRB02KT 15SM FEW040 SCT240 M05/M08 A3026 RMK SC1CI2 SLP251

TAF TAF CYDF
Valide du 12 à 02h jusqu'au 12 à 14h UTC


120138Z 1202/1214 23006KT P6SM FEW040
FM120500 VRB03KT P6SM BKN030
FM121200 04006KT 1SM -SN VV010 RMK NXT FCST BY 120800Z



MET'MAP, la Météo Aéronautique d'un coup d'oeil ! - Copyright ORBIFLY Décembre 2007 - Disclaimer

ORBIFLY MET'MAP TEAM :

Programmation & Développement : Alexandra Zaïnal
Conception & Développement : Baudouin d'Aumeries
Co-Programmation & Développement : Marc-Olivier Méhu
Soutien technique & logistique : Manuel Goepfert

Contact : metmap@orbifly.com




SOURCES & CREDITS :

   NOAA